createdAt,value
2018-09-13T00:49:10.655Z,21.55
2018-09-13T00:59:51.102Z,21.29
2018-09-13T02:31:13.150Z,21.25
2018-09-13T02:36:27.663Z,21.17
2018-09-13T02:41:30.985Z,21.01
2018-09-13T03:49:51.312Z,20.76
2018-09-13T03:55:12.590Z,20.72
2018-09-13T04:34:46.907Z,20.60
2018-09-13T04:39:50.251Z,20.59
2018-09-13T04:44:53.591Z,20.54
2018-09-13T04:49:56.927Z,20.46
2018-09-13T04:55:00.256Z,20.57
2018-09-13T05:00:03.584Z,20.60
2018-09-13T05:05:06.921Z,20.55
2018-09-13T05:10:11.762Z,20.65
2018-09-13T05:15:15.094Z,20.63
2018-09-13T05:20:18.776Z,20.64
2018-09-13T05:31:02.870Z,20.68
2018-09-13T05:36:10.994Z,20.70
2018-09-13T05:41:14.354Z,20.71
2018-09-13T05:46:19.465Z,20.88
2018-09-13T05:51:22.798Z,20.97
2018-09-13T05:56:26.127Z,21.09
2018-09-13T06:01:30.235Z,21.10
2018-09-13T06:06:38.566Z,21.07
2018-09-13T06:11:41.906Z,21.19
2018-09-13T06:16:45.234Z,21.30
2018-09-13T06:21:48.563Z,21.49
2018-09-13T06:26:51.885Z,21.59
2018-09-13T07:00:54.803Z,21.77
2018-09-13T07:05:58.887Z,21.49
2018-09-13T07:11:02.218Z,21.58
2018-09-13T08:02:05.849Z,22.00
2018-09-13T08:07:09.179Z,22.01
2018-09-13T08:12:12.529Z,22.23
2018-09-13T09:03:21.854Z,23.12
2018-09-13T09:08:25.498Z,23.20
2018-09-13T09:13:31.486Z,23.08
2018-09-13T10:04:37.193Z,23.51
2018-09-13T10:09:47.591Z,23.57
2018-09-13T10:14:54.426Z,23.83
2018-09-13T11:05:54.112Z,24.91
2018-09-13T11:10:58.398Z,25.10
2018-09-13T12:02:04.133Z,25.73
2018-09-13T12:07:07.436Z,25.63
2018-09-13T12:12:10.762Z,25.82
2018-09-13T13:03:15.996Z,26.43
2018-09-13T13:08:19.318Z,26.84
2018-09-13T13:13:22.663Z,26.74
2018-09-13T14:04:28.493Z,28.02
2018-09-13T14:09:31.883Z,27.82
2018-09-13T14:14:35.946Z,27.72
2018-09-13T14:48:26.487Z,29.59
2018-09-13T14:53:30.582Z,29.42
2018-09-13T14:58:33.985Z,28.82
2018-09-13T15:32:24.377Z,23.52
2018-09-13T15:37:27.706Z,23.93
2018-09-13T15:42:31.055Z,23.74
2018-09-13T15:47:34.377Z,23.51
2018-09-13T15:52:38.584Z,23.50
2018-09-13T15:57:42.116Z,23.16
2018-09-13T16:02:45.566Z,22.90
2018-09-13T16:07:49.208Z,22.62
2018-09-13T16:12:52.596Z,22.61
2018-09-13T16:17:55.890Z,22.54
2018-09-13T16:22:59.505Z,22.48
2018-09-13T16:28:09.556Z,22.67
2018-09-13T16:33:16.375Z,22.66
2018-09-13T16:38:20.557Z,22.37
2018-09-13T16:43:26.116Z,22.46
2018-09-13T16:48:29.491Z,22.73
2018-09-13T16:53:32.815Z,22.51
2018-09-13T16:58:36.166Z,22.81
2018-09-13T17:03:39.510Z,22.94
2018-09-13T17:08:43.616Z,22.52
2018-09-13T17:13:47.231Z,22.31
2018-09-13T17:18:51.928Z,22.48
2018-09-13T17:23:55.958Z,22.62
2018-09-13T17:28:59.652Z,22.74
2018-09-13T17:34:04.313Z,22.76
2018-09-13T17:39:08.943Z,22.70
2018-09-13T17:44:12.613Z,22.71
2018-09-13T17:49:16.192Z,21.93
2018-09-13T17:54:20.773Z,21.62
2018-09-13T17:59:24.354Z,21.63
2018-09-13T18:04:28.049Z,21.66
2018-09-13T18:09:31.850Z,21.85
2018-09-13T18:14:35.515Z,21.94
2018-09-13T18:19:40.052Z,21.93
2018-09-13T18:24:43.868Z,22.00
2018-09-13T18:29:47.497Z,21.83
2018-09-13T18:34:50.867Z,21.69
2018-09-13T18:39:54.626Z,21.62
2018-09-13T18:44:58.143Z,21.44
2018-09-13T18:50:01.727Z,21.36
2018-09-13T18:55:18.025Z,21.18
2018-09-13T19:00:23.239Z,21.18
2018-09-13T19:05:26.613Z,21.03
2018-09-13T19:10:29.909Z,21.19
2018-09-13T19:15:45.864Z,21.03
2018-09-13T19:20:49.178Z,21.01
2018-09-13T19:25:52.506Z,21.11
2018-09-13T19:30:55.866Z,21.16
2018-09-13T19:36:03.667Z,21.30
2018-09-13T19:41:06.990Z,21.22
2018-09-13T19:46:10.313Z,21.14
2018-09-13T19:51:13.697Z,20.83
2018-09-13T19:56:21.314Z,20.71
2018-09-13T20:01:24.683Z,21.02
2018-09-13T20:06:33.355Z,21.11
2018-09-13T20:11:36.819Z,21.10
2018-09-13T20:16:42.096Z,20.98
2018-09-13T20:21:45.736Z,20.97
2018-09-13T20:26:49.302Z,20.99
2018-09-13T20:31:52.677Z,20.82
2018-09-13T20:36:56.019Z,20.70
2018-09-13T20:41:59.363Z,20.80
2018-09-13T20:47:02.924Z,20.85
2018-09-13T20:52:06.546Z,20.77
2018-09-13T20:57:11.492Z,20.71
2018-09-13T21:02:14.904Z,20.67
2018-09-13T21:07:18.495Z,20.60
2018-09-13T21:12:22.065Z,20.52
2018-09-13T21:17:26.189Z,20.56
2018-09-13T21:22:30.285Z,20.48
2018-09-13T21:27:33.619Z,20.36
2018-09-13T21:32:37.015Z,20.32
2018-09-13T21:37:41.080Z,20.39
2018-09-13T21:42:44.430Z,20.32
2018-09-13T21:47:48.523Z,20.34
2018-09-13T21:52:51.855Z,20.31
2018-09-13T21:57:55.181Z,20.29
2018-09-13T22:02:59.271Z,19.63
2018-09-13T22:08:02.608Z,19.25
2018-09-13T22:13:06.718Z,19.77
2018-09-13T22:18:10.047Z,19.72
2018-09-13T22:23:13.383Z,19.67
2018-09-13T22:28:17.476Z,20.06
2018-09-13T22:33:20.804Z,19.95
2018-09-13T22:38:24.134Z,20.08
2018-09-13T22:43:34.789Z,20.14
2018-09-13T22:48:38.130Z,20.23
2018-09-13T22:53:42.219Z,20.26
2018-09-13T22:58:45.548Z,20.33
2018-09-13T23:03:48.882Z,20.36
2018-09-13T23:08:52.205Z,20.49
2018-09-13T23:13:55.543Z,20.56
